Time;durP1;ratioP1;P1;durP2;ratioP2;P2;SDS_P1;SDS_P2;PMS_P1;PMS_P2;Temp;Humidity;BMP_temperature;BMP_pressure;BME280_temperature;BME280_humidity;BME280_pressure;Samples;Min_cycle;Max_cycle;Signal;HPM_P1;HPM_P2
2023/12/21 00:01:44;;;;;;;19.13;3.15;;;;;;;;;;5008697;28;20038;-60
2023/12/21 00:04:10;;;;;;;24.35;4.20;;;;;;;;;;5001897;28;20048;-60
2023/12/21 00:06:36;;;;;;;14.88;3.15;;;;;;;;;;5006287;28;20037;-59
2023/12/21 00:09:02;;;;;;;20.27;4.43;;;;;;;;;;5023906;28;21057;-59
2023/12/21 00:11:28;;;;;;;19.90;4.05;;;;;;;;;;5008489;28;20030;-59
2023/12/21 00:13:54;;;;;;;18.70;3.63;;;;;;;;;;5008780;28;20041;-59
2023/12/21 00:16:20;;;;;;;30.58;4.03;;;;;;;;;;5008618;28;20029;-60
2023/12/21 00:18:46;;;;;;;15.52;3.15;;;;;;;;;;5008659;28;20053;-59
2023/12/21 00:21:12;;;;;;;18.73;3.92;;;;;;;;;;5006869;28;20041;-59
2023/12/21 00:23:38;;;;;;;19.33;3.67;;;;;;;;;;5008130;28;20033;-59
2023/12/21 00:26:04;;;;;;;20.88;3.42;;;;;;;;;;5008520;28;20041;-59
2023/12/21 00:28:30;;;;;;;19.55;3.00;;;;;;;;;;5008909;28;20029;-60
2023/12/21 00:30:56;;;;;;;24.42;3.58;;;;;;;;;;5009283;28;20040;-60
2023/12/21 00:33:22;;;;;;;21.13;3.35;;;;;;;;;;5007640;28;20111;-59
2023/12/21 00:35:48;;;;;;;19.58;3.95;;;;;;;;;;5008017;28;20032;-59
2023/12/21 00:38:14;;;;;;;22.08;3.40;;;;;;;;;;5007400;28;20034;-60
2023/12/21 00:40:40;;;;;;;14.63;2.88;;;;;;;;;;5008551;28;20037;-60
2023/12/21 00:43:06;;;;;;;26.13;4.15;;;;;;;;;;5006758;28;20655;-59
2023/12/21 00:45:32;;;;;;;15.48;3.42;;;;;;;;;;5007635;28;20026;-59
2023/12/21 00:47:58;;;;;;;17.90;3.28;;;;;;;;;;5007969;28;20030;-59
2023/12/21 00:50:25;;;;;;;22.65;3.53;;;;;;;;;;5007585;28;20042;-59
2023/12/21 00:52:51;;;;;;;26.23;4.63;;;;;;;;;;5007764;28;20037;-59
2023/12/21 00:55:17;;;;;;;18.67;3.33;;;;;;;;;;5006910;28;20034;-59
2023/12/21 00:57:43;;;;;;;25.48;4.63;;;;;;;;;;5006245;28;20049;-60
2023/12/21 01:00:09;;;;;;;19.25;3.47;;;;;;;;;;5008033;28;20029;-59
2023/12/21 01:02:36;;;;;;;18.63;3.75;;;;;;;;;;5007217;28;20030;-60
2023/12/21 01:05:03;;;;;;;18.65;3.67;;;;;;;;;;5007198;28;20041;-60
2023/12/21 01:07:29;;;;;;;23.83;4.13;;;;;;;;;;5007072;28;20036;-60
2023/12/21 01:09:55;;;;;;;20.10;3.88;;;;;;;;;;5006441;28;20026;-59
2023/12/21 01:12:21;;;;;;;15.63;3.50;;;;;;;;;;5007250;28;21827;-59
2023/12/21 01:14:47;;;;;;;23.63;4.60;;;;;;;;;;5006991;28;20036;-60
2023/12/21 01:17:13;;;;;;;19.42;3.95;;;;;;;;;;5007639;28;20038;-60
2023/12/21 01:19:39;;;;;;;24.88;3.97;;;;;;;;;;5007193;28;20038;-60
2023/12/21 01:22:05;;;;;;;26.13;3.85;;;;;;;;;;5007582;28;20033;-60
2023/12/21 01:24:31;;;;;;;25.50;3.20;;;;;;;;;;5006566;28;20037;-60
2023/12/21 01:26:57;;;;;;;12.23;3.17;;;;;;;;;;5007475;28;20113;-59
2023/12/21 01:29:23;;;;;;;20.77;4.30;;;;;;;;;;5007181;28;20037;-59
2023/12/21 01:31:50;;;;;;;15.95;3.08;;;;;;;;;;5007553;28;20085;-60
2023/12/21 01:34:16;;;;;;;23.50;3.60;;;;;;;;;;5006481;28;20055;-59
2023/12/21 01:36:42;;;;;;;24.63;4.25;;;;;;;;;;5006786;28;20047;-59
2023/12/21 01:39:08;;;;;;;19.35;4.22;;;;;;;;;;5007186;28;20041;-60
2023/12/21 01:41:35;;;;;;;17.20;2.97;;;;;;;;;;5006905;28;20573;-60
2023/12/21 01:44:02;;;;;;;21.13;3.88;;;;;;;;;;5006267;28;20025;-60
2023/12/21 01:46:28;;;;;;;18.23;3.28;;;;;;;;;;5007119;28;20116;-60
2023/12/21 01:48:54;;;;;;;22.02;3.30;;;;;;;;;;5007103;28;20025;-59
2023/12/21 01:51:20;;;;;;;18.95;4.10;;;;;;;;;;5006696;28;20033;-60
2023/12/21 01:53:47;;;;;;;24.67;4.10;;;;;;;;;;5006585;28;20025;-60
2023/12/21 01:56:13;;;;;;;18.23;3.40;;;;;;;;;;5005996;28;20026;-60
2023/12/21 01:58:39;;;;;;;17.67;4.05;;;;;;;;;;5006076;28;20482;-60
2023/12/21 02:01:06;;;;;;;17.35;2.97;;;;;;;;;;5006349;28;20036;-59
2023/12/21 02:03:32;;;;;;;17.30;3.03;;;;;;;;;;5006011;28;20030;-60
2023/12/21 02:05:59;;;;;;;19.63;3.70;;;;;;;;;;5006638;28;20078;-59
2023/12/21 02:08:25;;;;;;;23.92;4.55;;;;;;;;;;5006379;28;20059;-60
2023/12/21 02:10:56;;;;;;;24.95;4.50;;;;;;;;;;5006542;28;20075;-59
2023/12/21 02:13:22;;;;;;;18.17;3.03;;;;;;;;;;5006207;28;20069;-59
2023/12/21 02:15:48;;;;;;;14.43;2.90;;;;;;;;;;5006320;28;20030;-60
2023/12/21 02:18:14;;;;;;;16.27;3.17;;;;;;;;;;5006114;28;20073;-60
2023/12/21 02:20:42;;;;;;;18.33;3.40;;;;;;;;;;5006849;28;20038;-59
2023/12/21 02:23:09;;;;;;;20.05;3.53;;;;;;;;;;5005205;28;20026;-60
2023/12/21 02:25:35;;;;;;;15.90;3.47;;;;;;;;;;5005901;28;20025;-60
2023/12/21 02:28:01;;;;;;;23.25;4.20;;;;;;;;;;5005389;28;20117;-60
2023/12/21 02:30:27;;;;;;;17.20;3.72;;;;;;;;;;5006192;28;20795;-59
2023/12/21 02:32:53;;;;;;;13.38;2.95;;;;;;;;;;5005598;28;20579;-59
2023/12/21 02:35:19;;;;;;;18.08;3.13;;;;;;;;;;5005267;28;20739;-60
2023/12/21 02:37:45;;;;;;;16.23;3.45;;;;;;;;;;5006229;28;21887;-59
2023/12/21 02:40:12;;;;;;;13.43;2.92;;;;;;;;;;5006001;28;20044;-60
2023/12/21 02:42:38;;;;;;;13.63;3.28;;;;;;;;;;5006014;28;20080;-59
2023/12/21 02:45:04;;;;;;;14.88;2.90;;;;;;;;;;5005636;28;20107;-60
2023/12/21 02:47:30;;;;;;;15.48;4.35;;;;;;;;;;5005549;28;20136;-59
2023/12/21 02:49:56;;;;;;;19.08;3.90;;;;;;;;;;5006346;28;20029;-60
2023/12/21 02:52:22;;;;;;;20.27;4.38;;;;;;;;;;5005538;28;20055;-59
2023/12/21 02:54:48;;;;;;;20.33;3.63;;;;;;;;;;5000801;28;20033;-59
2023/12/21 02:57:14;;;;;;;20.27;3.95;;;;;;;;;;5010052;28;20049;-59
2023/12/21 02:59:44;;;;;;;16.70;3.40;;;;;;;;;;5008819;28;20111;-60
2023/12/21 03:02:10;;;;;;;18.30;4.22;;;;;;;;;;5009005;28;20111;-60
2023/12/21 03:04:36;;;;;;;14.43;3.42;;;;;;;;;;5009565;28;20034;-60
2023/12/21 03:07:02;;;;;;;17.60;4.20;;;;;;;;;;5010187;28;20513;-59
2023/12/21 03:09:29;;;;;;;21.42;3.05;;;;;;;;;;5008837;28;20038;-59
2023/12/21 03:11:55;;;;;;;16.52;3.75;;;;;;;;;;5010260;28;20044;-59
2023/12/21 03:14:22;;;;;;;14.93;3.40;;;;;;;;;;5009739;28;20037;-60
2023/12/21 03:16:48;;;;;;;16.40;3.17;;;;;;;;;;5008384;28;21766;-60
2023/12/21 03:19:15;;;;;;;14.65;3.45;;;;;;;;;;5009162;28;20537;-59
2023/12/21 03:21:41;;;;;;;12.45;2.83;;;;;;;;;;5009447;28;20092;-60
2023/12/21 03:24:07;;;;;;;16.45;3.03;;;;;;;;;;5009605;28;20033;-60
2023/12/21 03:26:33;;;;;;;11.68;3.25;;;;;;;;;;5008610;28;20040;-60
2023/12/21 03:28:59;;;;;;;18.48;3.72;;;;;;;;;;5008313;28;20103;-60
2023/12/21 03:31:25;;;;;;;18.48;3.47;;;;;;;;;;5009067;28;20034;-59
2023/12/21 03:33:51;;;;;;;12.05;3.47;;;;;;;;;;5008136;28;20029;-59
2023/12/21 03:36:17;;;;;;;21.40;3.67;;;;;;;;;;5008678;28;20033;-60
2023/12/21 03:38:43;;;;;;;14.48;3.50;;;;;;;;;;5008468;28;21873;-60
2023/12/21 03:41:09;;;;;;;22.90;3.58;;;;;;;;;;5007998;28;20041;-60
2023/12/21 03:43:36;;;;;;;12.43;3.22;;;;;;;;;;5009358;28;20551;-60
2023/12/21 03:46:02;;;;;;;15.93;3.45;;;;;;;;;;5008947;28;20105;-59
2023/12/21 03:48:28;;;;;;;19.23;4.07;;;;;;;;;;5007939;28;20152;-59
2023/12/21 03:50:54;;;;;;;18.98;3.00;;;;;;;;;;5009120;28;20025;-59
2023/12/21 03:53:20;;;;;;;11.63;3.00;;;;;;;;;;5009242;28;20091;-59
2023/12/21 03:55:46;;;;;;;20.05;3.38;;;;;;;;;;5008848;28;20056;-59
2023/12/21 03:58:12;;;;;;;19.48;3.88;;;;;;;;;;5008716;28;20054;-59
2023/12/21 04:00:38;;;;;;;19.33;3.40;;;;;;;;;;5008671;28;21727;-59
2023/12/21 04:03:04;;;;;;;18.95;3.70;;;;;;;;;;5007640;28;20156;-59
2023/12/21 04:05:31;;;;;;;14.50;3.03;;;;;;;;;;5008565;28;20037;-59
2023/12/21 04:07:57;;;;;;;14.57;3.22;;;;;;;;;;5007886;28;20041;-60
2023/12/21 04:10:23;;;;;;;15.48;3.10;;;;;;;;;;5008027;28;20680;-59
2023/12/21 04:12:49;;;;;;;14.85;2.90;;;;;;;;;;5008313;28;20524;-60
2023/12/21 04:15:16;;;;;;;13.75;3.20;;;;;;;;;;5008583;28;20041;-60
2023/12/21 04:17:42;;;;;;;13.95;2.72;;;;;;;;;;5008887;28;20040;-59
2023/12/21 04:20:10;;;;;;;15.18;3.10;;;;;;;;;;5007737;28;20029;-59
2023/12/21 04:22:36;;;;;;;22.30;3.97;;;;;;;;;;5008443;28;20034;-60
2023/12/21 04:25:02;;;;;;;16.80;3.55;;;;;;;;;;5008839;28;20029;-59
2023/12/21 04:27:28;;;;;;;12.18;2.47;;;;;;;;;;5008781;28;20042;-60
2023/12/21 04:29:54;;;;;;;15.32;2.80;;;;;;;;;;5008048;28;20040;-59
2023/12/21 04:32:20;;;;;;;18.17;2.83;;;;;;;;;;5008277;28;20460;-59
2023/12/21 04:34:47;;;;;;;20.58;3.40;;;;;;;;;;5007712;28;20112;-59
2023/12/21 04:37:13;;;;;;;16.83;3.33;;;;;;;;;;5007820;28;20033;-59
2023/12/21 04:39:39;;;;;;;12.82;2.60;;;;;;;;;;5007551;28;20029;-60
2023/12/21 04:42:06;;;;;;;14.98;2.65;;;;;;;;;;5007929;28;20026;-59
2023/12/21 04:44:32;;;;;;;16.98;3.13;;;;;;;;;;5008240;28;20030;-59
2023/12/21 04:46:58;;;;;;;17.20;3.63;;;;;;;;;;5007963;28;20021;-59
2023/12/21 04:49:26;;;;;;;14.00;3.17;;;;;;;;;;5022506;28;20083;-59
2023/12/21 04:51:52;;;;;;;9.15;2.60;;;;;;;;;;5007250;28;20515;-59
2023/12/21 04:54:18;;;;;;;10.70;2.20;;;;;;;;;;5007761;28;20460;-59
2023/12/21 04:56:44;;;;;;;19.55;2.70;;;;;;;;;;5007445;28;20041;-59
2023/12/21 04:59:11;;;;;;;13.15;2.65;;;;;;;;;;5007058;28;20053;-60
2023/12/21 05:01:37;;;;;;;13.80;2.90;;;;;;;;;;5007386;28;20079;-59
2023/12/21 05:04:03;;;;;;;13.93;2.75;;;;;;;;;;5007187;28;20659;-59
2023/12/21 05:06:29;;;;;;;21.10;3.72;;;;;;;;;;5007703;28;20079;-60
2023/12/21 05:08:56;;;;;;;15.38;3.13;;;;;;;;;;5006531;28;21850;-59
2023/12/21 05:11:22;;;;;;;18.10;4.63;;;;;;;;;;5008448;28;20025;-59
2023/12/21 05:13:49;;;;;;;20.02;3.53;;;;;;;;;;5007517;28;20049;-60
2023/12/21 05:16:15;;;;;;;16.08;3.22;;;;;;;;;;5008198;28;20026;-59
2023/12/21 05:18:41;;;;;;;14.32;3.28;;;;;;;;;;5007108;28;20110;-59
2023/12/21 05:21:10;;;;;;;10.27;3.08;;;;;;;;;;5006718;28;20124;-59
2023/12/21 05:23:36;;;;;;;18.35;3.40;;;;;;;;;;5006700;28;20867;-60
2023/12/21 05:26:02;;;;;;;23.45;4.60;;;;;;;;;;5008100;28;20037;-59
2023/12/21 05:28:28;;;;;;;12.27;3.20;;;;;;;;;;5007423;28;20770;-59
2023/12/21 05:30:54;;;;;;;16.33;3.17;;;;;;;;;;5007129;28;20037;-59
2023/12/21 05:33:20;;;;;;;15.15;3.67;;;;;;;;;;5007321;28;20037;-59
2023/12/21 05:35:46;;;;;;;17.63;4.78;;;;;;;;;;5010084;28;20029;-59
2023/12/21 05:38:12;;;;;;;14.95;3.13;;;;;;;;;;5001735;28;20903;-59
2023/12/21 05:40:38;;;;;;;20.90;2.83;;;;;;;;;;5007393;28;20088;-59
2023/12/21 05:43:04;;;;;;;12.52;3.03;;;;;;;;;;5006309;28;20059;-60
2023/12/21 05:45:30;;;;;;;19.83;3.00;;;;;;;;;;5010218;28;20431;-59
2023/12/21 05:47:58;;;;;;;15.35;3.05;;;;;;;;;;5006653;28;20097;-59
2023/12/21 05:50:25;;;;;;;12.48;2.50;;;;;;;;;;5007081;28;20025;-59
2023/12/21 05:52:51;;;;;;;21.58;3.35;;;;;;;;;;5006952;28;20029;-59
2023/12/21 05:55:17;;;;;;;20.27;3.80;;;;;;;;;;5006230;28;20119;-59
2023/12/21 05:57:44;;;;;;;18.35;2.80;;;;;;;;;;5006230;28;20572;-59
2023/12/21 06:00:10;;;;;;;18.98;2.42;;;;;;;;;;5006181;28;20083;-59
2023/12/21 06:02:36;;;;;;;15.80;2.58;;;;;;;;;;4999897;28;20044;-59
2023/12/21 06:05:03;;;;;;;12.05;2.42;;;;;;;;;;5006482;28;20034;-60
2023/12/21 06:07:29;;;;;;;15.05;2.92;;;;;;;;;;5005398;28;20032;-59
2023/12/21 06:09:55;;;;;;;15.10;2.80;;;;;;;;;;5006512;28;20030;-59
2023/12/21 06:12:22;;;;;;;15.93;3.58;;;;;;;;;;5006020;28;20042;-59
2023/12/21 06:14:48;;;;;;;13.82;2.88;;;;;;;;;;5006243;28;20056;-59
2023/12/21 06:17:14;;;;;;;17.77;2.92;;;;;;;;;;5005833;28;20031;-59
2023/12/21 06:19:41;;;;;;;19.20;3.65;;;;;;;;;;5006209;28;20041;-59
2023/12/21 06:22:07;;;;;;;27.08;3.38;;;;;;;;;;5005648;28;20045;-59
2023/12/21 06:24:33;;;;;;;17.83;3.53;;;;;;;;;;5001684;28;20091;-60
2023/12/21 06:26:59;;;;;;;20.40;2.78;;;;;;;;;;5005468;28;20061;-59
2023/12/21 06:29:25;;;;;;;14.23;2.85;;;;;;;;;;5005951;28;20037;-59
2023/12/21 06:31:51;;;;;;;15.95;3.13;;;;;;;;;;5005719;28;20052;-59
2023/12/21 06:34:17;;;;;;;14.35;2.72;;;;;;;;;;5005685;28;20049;-59
2023/12/21 06:36:43;;;;;;;16.27;2.83;;;;;;;;;;5005573;28;20044;-59
2023/12/21 06:39:10;;;;;;;10.25;2.97;;;;;;;;;;5006197;28;20061;-59
2023/12/21 06:41:36;;;;;;;15.88;2.88;;;;;;;;;;5005385;28;20026;-59
2023/12/21 06:44:02;;;;;;;18.25;2.78;;;;;;;;;;5005456;28;20793;-59
2023/12/21 06:46:28;;;;;;;15.57;2.53;;;;;;;;;;5005824;28;20076;-60
2023/12/21 06:48:54;;;;;;;14.90;2.58;;;;;;;;;;5005860;28;20033;-60
2023/12/21 06:51:20;;;;;;;12.10;2.20;;;;;;;;;;5005727;28;20124;-59
2023/12/21 06:53:46;;;;;;;14.88;2.33;;;;;;;;;;5002456;28;20152;-60
2023/12/21 06:56:12;;;;;;;16.50;2.97;;;;;;;;;;4996803;28;20026;-59
2023/12/21 06:58:39;;;;;;;7.22;1.75;;;;;;;;;;4999432;28;20057;-59
2023/12/21 07:01:05;;;;;;;8.88;2.10;;;;;;;;;;5005475;28;20620;-59
2023/12/21 07:03:31;;;;;;;9.75;1.90;;;;;;;;;;5004914;28;21800;-59
2023/12/21 07:05:58;;;;;;;8.15;1.73;;;;;;;;;;5005787;28;20524;-60
2023/12/21 07:08:24;;;;;;;6.90;1.77;;;;;;;;;;5005642;28;20050;-60
2023/12/21 07:10:50;;;;;;;6.35;1.52;;;;;;;;;;5005750;28;20044;-60
2023/12/21 07:13:16;;;;;;;9.82;1.70;;;;;;;;;;5004842;28;20033;-59
2023/12/21 07:15:42;;;;;;;6.85;1.60;;;;;;;;;;5004990;28;20484;-60
2023/12/21 07:18:08;;;;;;;10.63;1.27;;;;;;;;;;5005113;28;20030;-60
2023/12/21 07:20:35;;;;;;;10.15;1.73;;;;;;;;;;5006127;28;20042;-60
2023/12/21 07:23:01;;;;;;;7.40;1.60;;;;;;;;;;5006262;28;20080;-60
2023/12/21 07:25:27;;;;;;;9.02;2.25;;;;;;;;;;5005609;28;20069;-60
2023/12/21 07:27:53;;;;;;;8.25;1.13;;;;;;;;;;5005173;28;20037;-60
2023/12/21 07:30:20;;;;;;;6.63;1.25;;;;;;;;;;5005396;28;20034;-60
2023/12/21 07:32:46;;;;;;;8.20;1.90;;;;;;;;;;4997588;28;20038;-60
2023/12/21 07:35:13;;;;;;;9.60;1.90;;;;;;;;;;4997212;28;20049;-59
2023/12/21 07:37:39;;;;;;;10.45;1.70;;;;;;;;;;4996890;28;21785;-60
2023/12/21 07:40:05;;;;;;;9.45;1.42;;;;;;;;;;4997478;28;20030;-59
2023/12/21 07:42:31;;;;;;;14.98;2.65;;;;;;;;;;4998947;28;20043;-60
2023/12/21 07:44:57;;;;;;;11.02;1.92;;;;;;;;;;5000397;28;20532;-60
2023/12/21 07:47:23;;;;;;;9.82;1.83;;;;;;;;;;5001708;28;20034;-60
2023/12/21 07:49:49;;;;;;;13.60;2.15;;;;;;;;;;5000882;28;21161;-60
2023/12/21 07:52:16;;;;;;;13.23;2.40;;;;;;;;;;5001977;28;20832;-60
2023/12/21 07:54:42;;;;;;;11.15;2.90;;;;;;;;;;5000984;28;20087;-60
2023/12/21 07:57:09;;;;;;;10.98;2.58;;;;;;;;;;5001059;28;20124;-60
2023/12/21 07:59:35;;;;;;;7.35;1.83;;;;;;;;;;5001280;28;20256;-60
2023/12/21 08:02:01;;;;;;;11.15;2.00;;;;;;;;;;5001295;28;20124;-60
2023/12/21 08:04:27;;;;;;;10.85;2.20;;;;;;;;;;4999896;28;20108;-60
2023/12/21 08:06:54;;;;;;;14.93;2.45;;;;;;;;;;5001004;28;20045;-60
2023/12/21 08:09:20;;;;;;;12.27;2.45;;;;;;;;;;5000962;28;20026;-60
2023/12/21 08:11:46;;;;;;;18.88;3.03;;;;;;;;;;5001463;28;20040;-60
2023/12/21 08:14:13;;;;;;;15.02;2.70;;;;;;;;;;5000822;28;20481;-60
2023/12/21 08:16:39;;;;;;;12.27;2.28;;;;;;;;;;5001509;28;20026;-60
2023/12/21 08:19:06;;;;;;;17.67;3.05;;;;;;;;;;5000485;28;20096;-60
2023/12/21 08:21:32;;;;;;;15.60;3.20;;;;;;;;;;5000057;28;21004;-60
2023/12/21 08:23:58;;;;;;;16.95;3.25;;;;;;;;;;5000515;28;20063;-60
2023/12/21 08:26:24;;;;;;;29.30;4.90;;;;;;;;;;5001179;28;21519;-60
2023/12/21 08:28:50;;;;;;;19.52;3.10;;;;;;;;;;5001070;28;20034;-60
2023/12/21 08:31:24;;;;;;;22.20;3.25;;;;;;;;;;5001199;28;20082;-60
2023/12/21 08:33:50;;;;;;;30.33;4.82;;;;;;;;;;5000279;28;20037;-60
2023/12/21 08:36:16;;;;;;;19.98;3.15;;;;;;;;;;5012620;28;20037;-60
2023/12/21 08:38:42;;;;;;;17.83;3.30;;;;;;;;;;4999588;28;20183;-60
2023/12/21 08:41:08;;;;;;;26.10;3.47;;;;;;;;;;5000570;28;20048;-60
2023/12/21 08:43:36;;;;;;;24.85;3.95;;;;;;;;;;5000898;28;20052;-60
2023/12/21 08:46:02;;;;;;;21.33;4.35;;;;;;;;;;4999185;28;20033;-60
2023/12/21 08:48:28;;;;;;;21.58;3.08;;;;;;;;;;4999621;28;20799;-60
2023/12/21 08:50:54;;;;;;;17.98;3.50;;;;;;;;;;5001106;28;20041;-60
2023/12/21 08:53:21;;;;;;;25.45;4.65;;;;;;;;;;5000202;28;20164;-60
2023/12/21 08:55:47;;;;;;;21.63;4.20;;;;;;;;;;5000886;28;20064;-61
2023/12/21 08:58:13;;;;;;;27.52;4.85;;;;;;;;;;4999757;28;20210;-60
2023/12/21 09:00:39;;;;;;;20.38;4.28;;;;;;;;;;5001065;28;20915;-60
2023/12/21 09:03:06;;;;;;;16.20;3.00;;;;;;;;;;4999141;28;20041;-60
2023/12/21 09:05:32;;;;;;;12.80;2.55;;;;;;;;;;5000552;28;20520;-60
2023/12/21 09:07:58;;;;;;;14.02;2.80;;;;;;;;;;4999777;28;20026;-60
2023/12/21 09:10:24;;;;;;;16.63;3.35;;;;;;;;;;5000099;28;20118;-60
2023/12/21 09:12:50;;;;;;;26.15;4.05;;;;;;;;;;5015872;28;20040;-60
2023/12/21 09:15:16;;;;;;;23.65;3.65;;;;;;;;;;4999962;28;20552;-61
2023/12/21 09:17:42;;;;;;;22.73;3.83;;;;;;;;;;4999552;28;20065;-60
2023/12/21 09:20:09;;;;;;;22.63;3.38;;;;;;;;;;4999406;28;20026;-60
2023/12/21 09:22:36;;;;;;;17.48;3.40;;;;;;;;;;5000355;28;20064;-60
2023/12/21 09:25:03;;;;;;;20.15;3.78;;;;;;;;;;4999085;28;20080;-60
2023/12/21 09:27:30;;;;;;;25.58;4.22;;;;;;;;;;4999406;28;20068;-60
2023/12/21 09:29:57;;;;;;;21.33;3.75;;;;;;;;;;4999006;28;20033;-60
2023/12/21 09:32:23;;;;;;;21.80;4.03;;;;;;;;;;4999069;28;20064;-60
2023/12/21 09:34:49;;;;;;;20.42;3.80;;;;;;;;;;5000360;28;20076;-60
2023/12/21 09:37:16;;;;;;;19.33;3.05;;;;;;;;;;4999955;28;20037;-60
2023/12/21 09:39:42;;;;;;;18.90;2.95;;;;;;;;;;4999940;28;20035;-60
2023/12/21 09:42:10;;;;;;;18.05;3.17;;;;;;;;;;5000092;28;20038;-60
2023/12/21 09:44:37;;;;;;;20.83;2.97;;;;;;;;;;4998803;28;20022;-60
2023/12/21 09:47:04;;;;;;;13.00;2.47;;;;;;;;;;5000002;28;20040;-60
2023/12/21 09:49:36;;;;;;;17.30;3.03;;;;;;;;;;4999451;28;20073;-61
2023/12/21 09:52:04;;;;;;;17.52;3.15;;;;;;;;;;5000501;28;20041;-61
2023/12/21 09:54:30;;;;;;;21.00;3.30;;;;;;;;;;4999876;28;20113;-60
2023/12/21 09:56:57;;;;;;;25.23;4.25;;;;;;;;;;4999802;28;20038;-60
2023/12/21 09:59:27;;;;;;;16.23;3.13;;;;;;;;;;4999726;28;20057;-61
2023/12/21 10:01:53;;;;;;;20.23;2.92;;;;;;;;;;4998945;28;20047;-60
2023/12/21 10:04:19;;;;;;;19.13;2.97;;;;;;;;;;4998528;28;20083;-60
2023/12/21 10:06:46;;;;;;;17.70;2.90;;;;;;;;;;4995003;28;20042;-60
2023/12/21 10:09:15;;;;;;;16.35;3.00;;;;;;;;;;4992190;28;20025;-60
2023/12/21 10:11:41;;;;;;;12.02;2.95;;;;;;;;;;4998676;28;20517;-60
2023/12/21 10:14:20;;;;;;;21.00;3.67;;;;;;;;;;4998174;28;21243;-61
2023/12/21 10:16:46;;;;;;;14.18;2.88;;;;;;;;;;4998233;28;20033;-60
2023/12/21 10:19:12;;;;;;;20.05;3.33;;;;;;;;;;4997247;28;20092;-59
2023/12/21 10:21:42;;;;;;;22.27;3.45;;;;;;;;;;4997351;28;20034;-59
2023/12/21 10:24:10;;;;;;;20.20;3.33;;;;;;;;;;4997871;28;20711;-59
2023/12/21 10:26:46;;;;;;;20.13;3.13;;;;;;;;;;4997716;28;21725;-59
2023/12/21 10:29:16;;;;;;;19.73;3.53;;;;;;;;;;4996292;28;20632;-59
2023/12/21 10:31:44;;;;;;;18.65;4.53;;;;;;;;;;4997687;28;20095;-59
2023/12/21 10:34:10;;;;;;;28.55;3.92;;;;;;;;;;4996507;28;20044;-59
2023/12/21 10:36:39;;;;;;;15.65;2.60;;;;;;;;;;4997658;28;21080;-59
2023/12/21 10:39:07;;;;;;;18.88;3.13;;;;;;;;;;4997594;28;20108;-59
2023/12/21 10:41:33;;;;;;;18.85;2.78;;;;;;;;;;4995980;28;20330;-59
2023/12/21 10:44:00;;;;;;;22.65;3.10;;;;;;;;;;4998061;28;21689;-59
2023/12/21 10:46:32;;;;;;;13.95;2.63;;;;;;;;;;4998886;28;20489;-59
2023/12/21 10:48:59;;;;;;;19.05;3.65;;;;;;;;;;4998795;28;20903;-59
2023/12/21 10:51:27;;;;;;;18.15;3.13;;;;;;;;;;4996813;28;20029;-59
2023/12/21 10:53:54;;;;;;;16.25;2.53;;;;;;;;;;4996338;28;20064;-59
2023/12/21 10:56:21;;;;;;;21.30;4.22;;;;;;;;;;4997972;28;20038;-60
2023/12/21 10:58:48;;;;;;;19.20;3.58;;;;;;;;;;4997626;28;20543;-59
2023/12/21 11:01:14;;;;;;;13.88;2.90;;;;;;;;;;4996795;28;20124;-59
2023/12/21 11:03:42;;;;;;;23.23;3.55;;;;;;;;;;4997877;28;20052;-59
2023/12/21 11:06:09;;;;;;;21.73;3.03;;;;;;;;;;4997719;28;20141;-59
2023/12/21 11:08:38;;;;;;;25.40;3.38;;;;;;;;;;4996809;28;20029;-59
2023/12/21 11:11:04;;;;;;;17.55;4.13;;;;;;;;;;4996393;28;20664;-59
2023/12/21 11:13:30;;;;;;;18.45;3.10;;;;;;;;;;4997353;28;20036;-59
2023/12/21 11:15:57;;;;;;;17.17;2.92;;;;;;;;;;4997922;28;20039;-59
2023/12/21 11:18:23;;;;;;;18.40;3.95;;;;;;;;;;5000180;28;20045;-59
2023/12/21 11:20:51;;;;;;;16.20;3.10;;;;;;;;;;5000602;28;20681;-59
2023/12/21 11:23:17;;;;;;;20.83;4.20;;;;;;;;;;5001122;28;20029;-59
2023/12/21 11:25:44;;;;;;;21.25;3.33;;;;;;;;;;5000159;28;20026;-59
2023/12/21 11:28:10;;;;;;;18.58;3.28;;;;;;;;;;5000805;28;21279;-59
2023/12/21 11:30:36;;;;;;;18.02;3.70;;;;;;;;;;5000927;28;20131;-60
2023/12/21 11:33:10;;;;;;;17.92;3.47;;;;;;;;;;5001061;28;20037;-59
2023/12/21 11:35:37;;;;;;;22.13;4.53;;;;;;;;;;5000616;28;20030;-60
2023/12/21 11:38:06;;;;;;;20.48;4.82;;;;;;;;;;5001157;28;20477;-60
2023/12/21 11:40:33;;;;;;;21.60;4.07;;;;;;;;;;5000440;28;20036;-59
2023/12/21 11:43:01;;;;;;;26.27;4.80;;;;;;;;;;5001302;28;20734;-59
2023/12/21 11:45:31;;;;;;;24.90;3.90;;;;;;;;;;4999476;28;20036;-60
2023/12/21 11:48:04;;;;;;;23.30;4.10;;;;;;;;;;5000556;28;21026;-60
2023/12/21 11:50:31;;;;;;;24.13;3.85;;;;;;;;;;5001126;28;20030;-59
2023/12/21 11:53:07;;;;;;;20.80;4.82;;;;;;;;;;5001124;28;20084;-59
2023/12/21 11:55:40;;;;;;;26.13;3.95;;;;;;;;;;5001486;28;20052;-59
2023/12/21 11:58:07;;;;;;;23.42;4.88;;;;;;;;;;4999568;28;20068;-60
2023/12/21 12:00:34;;;;;;;27.27;4.70;;;;;;;;;;5000268;28;20121;-60
2023/12/21 12:03:00;;;;;;;23.52;3.92;;;;;;;;;;4997414;28;20672;-60
2023/12/21 12:05:28;;;;;;;23.35;4.75;;;;;;;;;;4997385;28;20515;-60
2023/12/21 12:07:54;;;;;;;28.15;4.72;;;;;;;;;;4991723;28;20034;-60
2023/12/21 12:10:22;;;;;;;27.95;6.10;;;;;;;;;;4993442;28;20065;-60
2023/12/21 12:12:48;;;;;;;27.67;5.65;;;;;;;;;;4994569;28;20681;-60
2023/12/21 12:15:14;;;;;;;27.27;4.55;;;;;;;;;;4993864;28;20120;-60
2023/12/21 12:17:41;;;;;;;26.67;4.30;;;;;;;;;;4994328;28;20045;-60
2023/12/21 12:20:09;;;;;;;26.67;4.05;;;;;;;;;;4994126;28;20041;-60
2023/12/21 12:22:35;;;;;;;19.02;3.63;;;;;;;;;;4994878;28;20048;-60
2023/12/21 12:25:01;;;;;;;30.52;5.15;;;;;;;;;;4995495;28;20048;-60
2023/12/21 12:27:28;;;;;;;23.63;4.55;;;;;;;;;;4994733;28;20152;-60
2023/12/21 12:29:55;;;;;;;24.85;4.53;;;;;;;;;;4995153;28;20401;-60
2023/12/21 12:32:22;;;;;;;27.90;5.00;;;;;;;;;;4998177;28;20116;-60
2023/12/21 12:34:48;;;;;;;27.52;5.03;;;;;;;;;;4998740;28;20424;-59
2023/12/21 12:37:15;;;;;;;23.50;5.13;;;;;;;;;;4999886;28;20163;-59
2023/12/21 12:39:44;;;;;;;23.02;5.70;;;;;;;;;;5000229;28;20115;-59
2023/12/21 12:42:10;;;;;;;23.45;4.90;;;;;;;;;;5000022;28;20096;-59
2023/12/21 12:44:36;;;;;;;27.10;4.57;;;;;;;;;;5000526;28;20103;-59
2023/12/21 12:47:05;;;;;;;26.05;4.63;;;;;;;;;;5000519;28;20109;-59
2023/12/21 12:49:34;;;;;;;30.20;4.90;;;;;;;;;;5000856;28;20802;-59
2023/12/21 12:52:01;;;;;;;24.23;4.93;;;;;;;;;;4999296;28;20087;-59
2023/12/21 12:54:33;;;;;;;25.40;5.65;;;;;;;;;;4999616;28;20042;-59
2023/12/21 12:57:02;;;;;;;25.92;5.65;;;;;;;;;;4999914;28;20037;-59
2023/12/21 12:59:28;;;;;;;17.42;3.28;;;;;;;;;;4999651;28;20139;-59
2023/12/21 13:01:55;;;;;;;18.27;3.92;;;;;;;;;;4999258;28;20048;-60
2023/12/21 13:04:21;;;;;;;18.60;3.22;;;;;;;;;;5000184;28;20064;-59
2023/12/21 13:06:49;;;;;;;16.42;3.78;;;;;;;;;;5000024;28;20030;-59
2023/12/21 13:09:18;;;;;;;17.50;3.10;;;;;;;;;;4999345;28;20108;-59
2023/12/21 13:11:44;;;;;;;23.92;3.35;;;;;;;;;;4998626;28;20037;-59
2023/12/21 13:14:15;;;;;;;14.40;2.47;;;;;;;;;;5000215;28;20037;-59
2023/12/21 13:16:41;;;;;;;16.90;2.95;;;;;;;;;;4998778;28;20535;-59
2023/12/21 13:19:08;;;;;;;20.83;2.65;;;;;;;;;;4998743;28;20038;-59
2023/12/21 13:21:34;;;;;;;18.38;2.95;;;;;;;;;;4999487;28;20030;-59
2023/12/21 13:24:01;;;;;;;14.77;2.47;;;;;;;;;;4999641;28;20045;-59
2023/12/21 13:26:28;;;;;;;13.63;3.13;;;;;;;;;;4999668;28;20041;-59
2023/12/21 13:28:54;;;;;;;15.35;3.22;;;;;;;;;;4999059;28;20107;-59
2023/12/21 13:31:24;;;;;;;13.68;3.25;;;;;;;;;;4999316;28;20026;-59
2023/12/21 13:33:50;;;;;;;16.73;2.50;;;;;;;;;;4997940;28;20044;-59
2023/12/21 13:36:16;;;;;;;18.17;3.67;;;;;;;;;;4998549;28;20968;-59
2023/12/21 13:38:43;;;;;;;16.83;2.55;;;;;;;;;;4999111;28;20460;-59
2023/12/21 13:41:09;;;;;;;14.30;2.88;;;;;;;;;;4998028;28;20021;-58
2023/12/21 13:43:35;;;;;;;22.10;3.25;;;;;;;;;;4999802;28;20128;-58
2023/12/21 13:46:02;;;;;;;20.02;4.13;;;;;;;;;;4998616;28;20026;-58
2023/12/21 13:48:28;;;;;;;15.68;3.30;;;;;;;;;;4998458;28;20452;-58
2023/12/21 13:50:54;;;;;;;19.45;3.40;;;;;;;;;;4999732;28;20034;-59
2023/12/21 13:53:20;;;;;;;18.15;3.42;;;;;;;;;;4999000;28;20042;-58
2023/12/21 13:55:47;;;;;;;18.50;3.00;;;;;;;;;;4999652;28;20042;-59
2023/12/21 13:58:14;;;;;;;17.98;2.75;;;;;;;;;;4999644;28;20062;-59
2023/12/21 14:00:40;;;;;;;14.27;2.67;;;;;;;;;;4999939;28;20040;-59
2023/12/21 14:03:06;;;;;;;16.30;2.25;;;;;;;;;;4997608;28;20079;-58
2023/12/21 14:05:32;;;;;;;10.70;2.13;;;;;;;;;;4998527;28;20036;-58
2023/12/21 14:07:58;;;;;;;15.73;2.80;;;;;;;;;;4997884;28;20025;-58
2023/12/21 14:10:24;;;;;;;15.13;2.40;;;;;;;;;;4998858;28;20029;-58
2023/12/21 14:12:50;;;;;;;12.43;1.85;;;;;;;;;;4997810;28;20439;-58
2023/12/21 14:15:16;;;;;;;10.90;1.95;;;;;;;;;;4999702;28;20432;-58
2023/12/21 14:17:42;;;;;;;13.32;2.33;;;;;;;;;;4997012;28;20034;-58
2023/12/21 14:20:11;;;;;;;18.80;2.72;;;;;;;;;;4999094;28;20037;-58
2023/12/21 14:22:37;;;;;;;19.15;2.90;;;;;;;;;;4997986;28;20025;-58
2023/12/21 14:25:03;;;;;;;18.23;2.67;;;;;;;;;;4996424;28;20025;-59
2023/12/21 14:27:30;;;;;;;25.08;3.70;;;;;;;;;;4998772;28;20028;-58